createdAt,value
2018-10-16T00:00:33.784Z,15.63
2018-10-16T00:03:38.336Z,16.63
2018-10-16T00:06:42.905Z,16.97
2018-10-16T00:09:47.563Z,16.10
2018-10-16T00:12:52.145Z,16.60
2018-10-16T00:15:56.717Z,14.47
2018-10-16T00:19:01.284Z,16.10
2018-10-16T00:22:05.903Z,15.90
2018-10-16T00:25:15.748Z,15.63
2018-10-16T00:28:20.302Z,15.70
2018-10-16T00:31:24.808Z,16.87
2018-10-16T00:34:29.356Z,18.20
2018-10-16T00:37:33.923Z,16.17
2018-10-16T00:40:38.485Z,18.57
2018-10-16T00:43:43.021Z,16.23
2018-10-16T00:46:47.622Z,17.10
2018-10-16T00:49:52.370Z,17.27
2018-10-16T00:52:56.973Z,14.70
2018-10-16T00:56:01.586Z,15.43
2018-10-16T00:59:06.309Z,15.07
2018-10-16T01:02:11.496Z,14.13
2018-10-16T01:05:16.095Z,15.37
2018-10-16T01:08:20.803Z,16.77
2018-10-16T01:11:25.700Z,13.57
2018-10-16T01:14:30.381Z,14.77
2018-10-16T01:17:34.941Z,15.47
2018-10-16T01:20:39.603Z,14.70
2018-10-16T01:23:44.196Z,14.97
2018-10-16T01:26:48.780Z,13.43
2018-10-16T01:29:53.522Z,14.90
2018-10-16T01:32:58.242Z,15.43
2018-10-16T01:36:02.851Z,13.83
2018-10-16T01:39:07.913Z,14.70
2018-10-16T01:42:12.467Z,13.57
2018-10-16T01:45:17.002Z,15.47
2018-10-16T01:48:21.794Z,15.30
2018-10-16T01:51:26.491Z,16.07
2018-10-16T01:54:31.113Z,14.23
2018-10-16T01:57:35.753Z,13.83
2018-10-16T02:00:40.448Z,14.40
2018-10-16T02:03:45.022Z,14.07
2018-10-16T02:06:49.694Z,15.40
2018-10-16T02:09:54.293Z,14.30
2018-10-16T02:12:59.062Z,17.63
2018-10-16T02:16:03.666Z,17.27
2018-10-16T02:19:08.290Z,15.70
2018-10-16T02:22:12.984Z,15.93
2018-10-16T02:25:17.540Z,15.23
2018-10-16T02:28:22.191Z,13.73
2018-10-16T02:31:27.128Z,14.47
2018-10-16T02:34:31.720Z,14.73
2018-10-16T02:37:36.512Z,14.90
2018-10-16T02:40:41.041Z,15.80
2018-10-16T02:43:45.665Z,14.33
2018-10-16T02:46:50.280Z,14.40
2018-10-16T02:49:54.912Z,14.97
2018-10-16T02:52:59.556Z,16.03
2018-10-16T02:56:04.225Z,18.50
2018-10-16T02:59:08.805Z,14.53
2018-10-16T03:02:13.479Z,14.73
2018-10-16T03:05:18.052Z,13.77
2018-10-16T03:08:22.613Z,14.27
2018-10-16T03:11:27.174Z,14.53
2018-10-16T03:14:31.953Z,16.30
2018-10-16T03:17:36.523Z,16.10
2018-10-16T03:20:41.305Z,15.97
2018-10-16T03:23:46.014Z,14.13
2018-10-16T03:26:50.566Z,15.37
2018-10-16T03:29:55.183Z,16.07
2018-10-16T03:33:00.380Z,14.30
2018-10-16T03:36:05.300Z,14.50
2018-10-16T03:39:11.863Z,14.53
2018-10-16T03:42:16.481Z,14.27
2018-10-16T03:45:21.176Z,15.37
2018-10-16T03:48:25.827Z,15.23
2018-10-16T03:51:30.409Z,15.20
2018-10-16T03:54:34.951Z,14.80
2018-10-16T03:57:39.515Z,15.13
2018-10-16T04:00:44.097Z,16.20
2018-10-16T04:03:49.052Z,14.77
2018-10-16T04:06:53.776Z,13.50
2018-10-16T04:09:58.405Z,13.23
2018-10-16T04:13:03.361Z,13.43
2018-10-16T04:16:08.401Z,14.43
2018-10-16T04:19:13.427Z,13.60
2018-10-16T04:22:18.222Z,14.07
2018-10-16T04:25:22.677Z,12.40
2018-10-16T04:28:27.324Z,15.00
2018-10-16T04:31:31.978Z,17.47
2018-10-16T04:34:36.646Z,15.97
2018-10-16T04:37:41.560Z,19.07
2018-10-16T04:40:46.175Z,19.07
2018-10-16T04:43:50.831Z,17.37
2018-10-16T04:46:55.355Z,17.80
2018-10-16T04:49:59.912Z,18.00
2018-10-16T04:53:05.049Z,18.43
2018-10-16T04:56:09.795Z,18.50
2018-10-16T04:59:14.474Z,17.50
2018-10-16T05:02:19.258Z,17.33
2018-10-16T05:05:24.828Z,16.47
2018-10-16T05:08:29.415Z,15.17
2018-10-16T05:11:34.791Z,16.03
2018-10-16T05:14:40.052Z,16.00
2018-10-16T05:17:44.672Z,15.53
2018-10-16T05:20:49.342Z,15.43
2018-10-16T05:23:55.056Z,16.40
2018-10-16T05:26:59.634Z,14.93
2018-10-16T05:30:04.334Z,13.77
2018-10-16T05:33:08.942Z,15.07
2018-10-16T05:36:13.591Z,17.27
2018-10-16T05:39:18.692Z,15.77
2018-10-16T05:42:23.324Z,16.97
2018-10-16T05:45:29.453Z,17.23
2018-10-16T05:48:34.023Z,16.73
2018-10-16T05:51:43.741Z,15.90
2018-10-16T05:54:48.400Z,14.97
2018-10-16T05:57:53.204Z,14.03
2018-10-16T06:00:57.790Z,15.83
2018-10-16T06:04:02.493Z,16.97
2018-10-16T06:07:07.206Z,15.67
2018-10-16T06:10:11.852Z,13.43
2018-10-16T06:13:16.503Z,13.67
2018-10-16T06:16:21.072Z,15.23
2018-10-16T06:19:25.717Z,14.53
2018-10-16T06:22:30.301Z,15.60
2018-10-16T06:25:34.858Z,13.23
2018-10-16T06:28:39.683Z,13.20
2018-10-16T06:31:44.265Z,13.97
2018-10-16T06:34:49.113Z,15.13
2018-10-16T06:37:53.729Z,14.93
2018-10-16T06:40:58.610Z,13.53
2018-10-16T06:44:03.204Z,14.20
2018-10-16T06:47:08.077Z,14.30
2018-10-16T06:50:12.799Z,12.57
2018-10-16T06:53:17.405Z,12.57
2018-10-16T06:56:22.049Z,12.20
2018-10-16T06:59:27.177Z,12.13
2018-10-16T07:02:31.780Z,10.70
2018-10-16T07:05:36.432Z,11.57
2018-10-16T07:08:41.027Z,10.97
2018-10-16T07:11:45.725Z,10.60
2018-10-16T07:14:50.517Z,10.70
2018-10-16T07:17:55.173Z,10.83
2018-10-16T07:21:00.003Z,10.50
2018-10-16T07:24:05.097Z,10.90
2018-10-16T07:27:09.765Z,10.20
2018-10-16T07:30:16.206Z,10.33
2018-10-16T07:33:20.700Z,10.67
2018-10-16T07:36:25.576Z,12.83
2018-10-16T07:39:30.206Z,11.70
2018-10-16T07:42:34.905Z,12.23
2018-10-16T07:45:39.595Z,12.40
2018-10-16T07:48:44.262Z,12.17
2018-10-16T07:51:48.850Z,12.73
2018-10-16T07:54:53.448Z,12.37
2018-10-16T07:57:58.050Z,12.53
2018-10-16T08:01:02.939Z,13.23
2018-10-16T08:04:08.038Z,12.73
2018-10-16T08:07:12.663Z,11.90
2018-10-16T08:10:17.381Z,14.07
2018-10-16T08:13:22.058Z,12.83
2018-10-16T08:16:26.647Z,13.03
2018-10-16T08:19:31.293Z,12.30
2018-10-16T08:22:35.941Z,12.47
2018-10-16T08:25:40.539Z,12.57
2018-10-16T08:28:45.214Z,12.00
2018-10-16T08:31:49.928Z,11.50
2018-10-16T08:34:54.537Z,12.93
2018-10-16T08:40:10.013Z,12.20
2018-10-16T08:43:39.153Z,12.07
2018-10-16T08:47:00.409Z,12.00
2018-10-16T08:50:22.799Z,11.83
2018-10-16T08:53:27.530Z,12.23
2018-10-16T08:56:32.497Z,12.23
2018-10-16T08:59:37.266Z,10.93
2018-10-16T09:02:41.860Z,11.83
2018-10-16T09:05:46.599Z,11.67
2018-10-16T09:08:51.548Z,10.83
2018-10-16T09:11:56.276Z,10.83
2018-10-16T09:15:00.940Z,10.57
2018-10-16T09:18:05.561Z,11.60
2018-10-16T09:21:10.248Z,11.20
2018-10-16T09:24:14.943Z,10.30
2018-10-16T09:27:19.601Z,10.70
2018-10-16T09:30:24.228Z,10.17
2018-10-16T09:33:28.856Z,11.80
2018-10-16T09:36:33.616Z,10.40
2018-10-16T09:39:38.434Z,10.30
2018-10-16T09:42:42.995Z,10.57
2018-10-16T09:45:47.703Z,10.13
2018-10-16T09:48:52.322Z,9.93
2018-10-16T09:51:56.979Z,10.00
2018-10-16T09:55:01.666Z,9.07
2018-10-16T09:58:06.449Z,9.43
2018-10-16T10:01:16.149Z,9.83
2018-10-16T10:04:20.684Z,9.60
2018-10-16T10:07:25.253Z,8.70
2018-10-16T10:10:29.945Z,9.00
2018-10-16T10:13:34.499Z,8.80
2018-10-16T10:16:39.436Z,9.37
2018-10-16T10:19:44.060Z,9.10
2018-10-16T10:22:48.940Z,9.07
2018-10-16T10:25:53.541Z,8.70
2018-10-16T10:28:58.690Z,8.77
2018-10-16T10:32:03.362Z,7.83
2018-10-16T10:35:10.268Z,8.73
2018-10-16T10:38:14.907Z,8.03
2018-10-16T10:41:19.448Z,8.40
2018-10-16T10:44:24.089Z,8.20
2018-10-16T10:47:28.690Z,7.77
2018-10-16T10:50:33.519Z,7.77
2018-10-16T10:53:37.998Z,7.93
2018-10-16T10:56:42.669Z,7.90
2018-10-16T10:59:47.191Z,7.90
2018-10-16T11:02:51.821Z,7.63
2018-10-16T11:05:56.411Z,8.03
2018-10-16T11:09:01.343Z,7.93
2018-10-16T11:12:06.152Z,7.23
2018-10-16T11:15:10.805Z,7.53
2018-10-16T11:18:15.395Z,7.40
2018-10-16T11:21:19.945Z,7.47
2018-10-16T11:24:24.654Z,7.17
2018-10-16T11:27:29.289Z,7.77
2018-10-16T11:30:33.853Z,6.97
2018-10-16T11:33:38.631Z,6.83
2018-10-16T11:36:43.193Z,6.57
2018-10-16T11:39:47.817Z,7.10
2018-10-16T11:42:52.568Z,7.00
2018-10-16T11:45:57.138Z,7.90
2018-10-16T11:49:01.746Z,7.67
2018-10-16T11:52:07.044Z,7.60
2018-10-16T11:55:11.809Z,6.50
2018-10-16T11:58:16.398Z,6.30
2018-10-16T12:01:21.544Z,6.50
2018-10-16T12:04:26.501Z,5.90
2018-10-16T12:07:31.101Z,6.50
2018-10-16T12:10:35.807Z,5.90
2018-10-16T12:13:40.350Z,5.73
2018-10-16T12:17:05.383Z,6.17
2018-10-16T12:20:16.725Z,5.90
2018-10-16T12:23:21.339Z,5.63
2018-10-16T12:26:26.000Z,5.50
2018-10-16T12:29:30.616Z,5.97
2018-10-16T12:32:35.263Z,6.33
2018-10-16T12:35:39.786Z,5.57
2018-10-16T12:38:44.486Z,5.47
2018-10-16T12:41:49.273Z,5.03
2018-10-16T12:44:53.728Z,5.40
2018-10-16T12:47:58.314Z,5.23
2018-10-16T12:51:02.939Z,5.00
2018-10-16T12:54:07.796Z,4.70
2018-10-16T12:57:12.522Z,4.93
2018-10-16T13:00:17.196Z,5.17
2018-10-16T13:03:21.814Z,4.63
2018-10-16T13:06:26.443Z,4.90
2018-10-16T13:09:31.147Z,4.63
2018-10-16T13:12:36.025Z,4.90
2018-10-16T13:15:40.571Z,5.10
2018-10-16T13:18:45.256Z,5.17
2018-10-16T13:21:49.859Z,4.60
2018-10-16T13:24:54.503Z,4.90
2018-10-16T13:27:59.553Z,5.27
2018-10-16T13:31:04.153Z,5.23
2018-10-16T13:34:08.836Z,4.70
2018-10-16T13:37:13.380Z,5.07
2018-10-16T13:40:18.294Z,4.87
2018-10-16T13:43:22.875Z,4.23
2018-10-16T13:46:27.841Z,4.47
2018-10-16T13:49:32.455Z,4.30
2018-10-16T13:52:37.081Z,4.27
2018-10-16T13:55:41.713Z,4.13
2018-10-16T13:58:46.340Z,4.23
2018-10-16T14:01:50.923Z,4.20
2018-10-16T14:04:55.634Z,4.17
2018-10-16T14:08:00.270Z,4.20
2018-10-16T14:11:05.026Z,4.47
2018-10-16T14:14:09.759Z,4.00
2018-10-16T14:17:14.422Z,4.17
2018-10-16T14:20:19.105Z,4.20
2018-10-16T14:23:23.719Z,4.30
2018-10-16T14:26:28.381Z,4.63
2018-10-16T14:29:33.182Z,4.27
2018-10-16T14:32:37.756Z,4.40
2018-10-16T14:35:42.480Z,4.13
2018-10-16T14:38:47.093Z,4.43
2018-10-16T14:41:51.784Z,4.60
2018-10-16T14:44:56.487Z,4.50
2018-10-16T14:48:01.081Z,4.70
2018-10-16T14:51:05.849Z,4.80
2018-10-16T14:54:10.568Z,4.67
2018-10-16T14:57:15.143Z,4.73
2018-10-16T15:00:19.908Z,4.50
2018-10-16T15:03:24.474Z,4.80
2018-10-16T15:06:29.152Z,4.77
2018-10-16T15:09:33.686Z,4.97
2018-10-16T15:12:38.290Z,4.83
2018-10-16T15:15:43.449Z,5.13
2018-10-16T15:18:48.113Z,5.30
2018-10-16T15:21:52.910Z,5.03
2018-10-16T15:24:57.476Z,5.50
2018-10-16T15:28:02.313Z,5.47
2018-10-16T15:31:06.952Z,5.00
2018-10-16T15:34:11.602Z,5.67
2018-10-16T15:37:16.910Z,5.37
2018-10-16T15:40:21.573Z,5.40
2018-10-16T15:43:26.390Z,5.27
2018-10-16T15:46:30.996Z,5.57
2018-10-16T15:49:35.921Z,5.30
2018-10-16T15:52:40.873Z,6.20
2018-10-16T15:55:45.530Z,5.40
2018-10-16T15:58:50.124Z,5.83
2018-10-16T16:01:54.892Z,6.10
2018-10-16T16:04:59.512Z,5.20
2018-10-16T16:08:04.470Z,5.63
2018-10-16T16:11:09.088Z,5.37
2018-10-16T16:14:13.925Z,5.50
2018-10-16T16:17:18.375Z,5.40
2018-10-16T16:20:23.069Z,6.60
2018-10-16T16:23:27.700Z,7.07
2018-10-16T16:26:32.517Z,6.07
2018-10-16T16:29:37.651Z,6.07
2018-10-16T16:32:42.308Z,5.80
2018-10-16T16:35:47.051Z,6.20
2018-10-16T16:38:51.592Z,5.60
2018-10-16T16:41:56.329Z,5.70
2018-10-16T16:45:00.988Z,7.13
2018-10-16T16:48:05.637Z,6.87
2018-10-16T16:51:10.448Z,6.30
2018-10-16T16:54:15.103Z,6.23
2018-10-16T16:57:19.734Z,6.97
2018-10-16T17:00:24.320Z,7.40
2018-10-16T17:03:29.058Z,6.40
2018-10-16T17:06:33.677Z,6.73
2018-10-16T17:09:38.280Z,6.80
2018-10-16T17:12:42.944Z,6.60
2018-10-16T17:15:47.585Z,6.03
2018-10-16T17:18:53.845Z,6.53
2018-10-16T17:21:58.481Z,6.23
2018-10-16T17:25:03.437Z,6.40
2018-10-16T17:28:07.999Z,8.43
2018-10-16T17:31:12.820Z,8.57
2018-10-16T17:34:17.985Z,8.10
2018-10-16T17:37:22.610Z,8.70
2018-10-16T17:40:27.230Z,8.77
2018-10-16T17:43:31.879Z,8.53
2018-10-16T17:46:36.698Z,9.10
2018-10-16T17:49:41.353Z,8.90
2018-10-16T17:52:46.102Z,8.40
2018-10-16T17:55:50.803Z,8.07
2018-10-16T17:58:55.461Z,9.37
2018-10-16T18:02:00.180Z,10.47
2018-10-16T18:05:04.961Z,11.03
2018-10-16T18:08:09.654Z,11.33
2018-10-16T18:11:14.322Z,9.13
2018-10-16T18:14:19.215Z,10.20
2018-10-16T18:17:24.036Z,8.97
2018-10-16T18:20:28.832Z,9.97
2018-10-16T18:23:33.711Z,10.07
2018-10-16T18:26:38.598Z,11.77
2018-10-16T18:29:44.302Z,13.77
2018-10-16T18:32:48.997Z,14.23
2018-10-16T18:35:53.681Z,16.50
2018-10-16T18:38:58.401Z,13.33
2018-10-16T18:42:03.067Z,14.53
2018-10-16T18:45:09.377Z,11.47
2018-10-16T18:48:14.029Z,10.00
2018-10-16T18:51:18.725Z,10.07
2018-10-16T18:54:23.831Z,9.43
2018-10-16T18:57:28.595Z,9.87
2018-10-16T19:00:33.342Z,9.77
2018-10-16T19:03:38.037Z,9.57
2018-10-16T19:06:42.914Z,10.23
2018-10-16T19:09:47.592Z,11.00
2018-10-16T19:12:52.239Z,9.40
2018-10-16T19:15:57.016Z,10.50
2018-10-16T19:19:01.712Z,10.07
2018-10-16T19:22:06.604Z,10.30
2018-10-16T19:25:12.170Z,10.03
2018-10-16T19:28:17.137Z,9.60
2018-10-16T19:31:21.810Z,10.63
2018-10-16T19:34:26.564Z,11.60
2018-10-16T19:37:31.347Z,11.23
2018-10-16T19:40:35.966Z,10.87
2018-10-16T19:43:40.639Z,11.07
2018-10-16T19:46:45.230Z,10.47
2018-10-16T19:49:49.913Z,9.93
2018-10-16T19:52:54.682Z,10.50
2018-10-16T19:55:59.356Z,11.67
2018-10-16T19:59:04.000Z,12.20
2018-10-16T20:02:09.405Z,12.17
2018-10-16T20:05:14.131Z,14.47
2018-10-16T20:08:18.710Z,13.47
2018-10-16T20:11:23.383Z,12.90
2018-10-16T20:14:28.091Z,13.33
2018-10-16T20:17:32.819Z,13.57
2018-10-16T20:20:37.466Z,14.33
2018-10-16T20:23:42.155Z,15.50
2018-10-16T20:26:46.698Z,14.53
2018-10-16T20:29:51.683Z,13.07
2018-10-16T20:32:56.348Z,12.43
2018-10-16T20:36:01.004Z,12.13
2018-10-16T20:39:10.917Z,11.17
2018-10-16T20:42:15.625Z,12.03
2018-10-16T20:45:20.394Z,12.83
2018-10-16T20:48:24.995Z,11.83
2018-10-16T20:51:29.557Z,10.60
2018-10-16T20:54:34.185Z,11.33
2018-10-16T20:57:38.967Z,11.50
2018-10-16T21:00:43.942Z,11.23
2018-10-16T21:03:53.122Z,11.77
2018-10-16T21:06:57.956Z,11.27
2018-10-16T21:10:02.937Z,11.53
2018-10-16T21:13:07.683Z,11.37
2018-10-16T21:16:12.325Z,11.70
2018-10-16T21:19:16.955Z,11.17
2018-10-16T21:22:21.608Z,10.20
2018-10-16T21:25:26.292Z,11.33
2018-10-16T21:28:31.017Z,12.23
2018-10-16T21:31:35.717Z,13.17
2018-10-16T21:34:40.313Z,13.67
2018-10-16T21:37:45.167Z,14.13
2018-10-16T21:40:49.829Z,13.73
2018-10-16T21:43:54.486Z,13.93
2018-10-16T21:46:59.212Z,13.50
2018-10-16T21:50:03.862Z,13.80
2018-10-16T21:53:08.616Z,13.40
2018-10-16T21:56:13.208Z,13.50
2018-10-16T21:59:18.216Z,14.30
2018-10-16T22:02:28.049Z,14.63
2018-10-16T22:05:32.677Z,14.43
2018-10-16T22:08:37.350Z,15.17
2018-10-16T22:11:41.951Z,14.87
2018-10-16T22:14:46.606Z,14.13
2018-10-16T22:17:51.486Z,14.30
2018-10-16T22:20:56.073Z,12.67
2018-10-16T22:24:00.872Z,13.67
2018-10-16T22:27:05.844Z,13.80
2018-10-16T22:30:10.976Z,13.27
2018-10-16T22:33:15.577Z,12.97
2018-10-16T22:36:20.308Z,13.50
2018-10-16T22:39:24.986Z,12.70
2018-10-16T22:42:29.859Z,12.73
2018-10-16T22:45:34.432Z,13.20
2018-10-16T22:48:39.285Z,14.20
2018-10-16T22:51:44.059Z,13.13
2018-10-16T22:54:48.804Z,13.10
2018-10-16T22:57:53.449Z,13.13
2018-10-16T23:00:58.333Z,14.27
2018-10-16T23:04:02.984Z,14.13
2018-10-16T23:07:07.758Z,13.90
2018-10-16T23:10:12.579Z,14.73
2018-10-16T23:13:17.261Z,15.63
2018-10-16T23:16:21.976Z,17.80
2018-10-16T23:19:26.461Z,16.10
2018-10-16T23:22:31.089Z,14.23
2018-10-16T23:25:35.798Z,14.70
2018-10-16T23:28:40.498Z,15.13
2018-10-16T23:31:45.241Z,14.60
2018-10-16T23:34:49.930Z,14.17
2018-10-16T23:37:54.709Z,15.13
2018-10-16T23:40:59.396Z,15.03
2018-10-16T23:44:04.144Z,15.17
2018-10-16T23:47:09.041Z,14.17
2018-10-16T23:50:13.928Z,15.40
2018-10-16T23:53:18.606Z,15.93
2018-10-16T23:56:23.204Z,14.17
2018-10-16T23:59:27.981Z,15.90
